Terminal Aerodrome Forecast
Issued by NWS Jackson, KY

Home | Current Version | Previous Version | Text Only | Print | Product List | Glossary On
Versions: 1 2 3 4 5 6 7 8 9 10 11 12 13 14 15 16 17 18 19 20 21
000
FTUS43 KJKL 282339
TAFJKL
TAF
KJKL 282339Z 2900/2924 00000KT P6SM FEW050 SCT150
     FM291100 00000KT 5SM BR BKN090
     FM291300 VRB03KT P6SM BKN100
     FM291700 VRB03KT P6SM VCSH FEW050 BKN120=

USA.gov is the U.S. government's official web portal to all federal, state and local government web resources and services.